createdAt,value
2024-04-10T00:03:22.145Z,100804.00
2024-04-10T00:07:23.840Z,100882.47
2024-04-10T00:11:26.656Z,100876.50
2024-04-10T00:15:28.473Z,100883.63
2024-04-10T00:19:30.155Z,100881.16
2024-04-10T00:23:31.894Z,100901.22
2024-04-10T00:27:33.550Z,100905.59
2024-04-10T00:31:35.104Z,100902.72
2024-04-10T00:35:37.379Z,100912.88
2024-04-10T00:39:39.114Z,100903.84
2024-04-10T00:43:40.741Z,100912.03
2024-04-10T00:47:42.678Z,100912.41
2024-04-10T00:51:44.674Z,100917.69
2024-04-10T00:55:46.427Z,100922.81
2024-04-10T00:59:48.146Z,100924.97
2024-04-10T01:03:50.075Z,100926.78
2024-04-10T01:07:52.551Z,100919.97
2024-04-10T01:11:54.429Z,100935.81
2024-04-10T01:15:56.186Z,100928.78
2024-04-10T01:19:57.785Z,100947.41
2024-04-10T01:23:59.444Z,100943.06
2024-04-10T01:28:01.135Z,100956.56
2024-04-10T01:32:03.106Z,100949.66
2024-04-10T01:36:05.233Z,100966.41
2024-04-10T01:40:07.517Z,100948.13
2024-04-10T01:44:09.175Z,100943.81
2024-04-10T01:48:11.080Z,100962.72
2024-04-10T01:52:12.982Z,100957.94
2024-04-10T01:56:14.606Z,100970.06
2024-04-10T02:00:20.356Z,100970.13
2024-04-10T02:04:22.349Z,100980.69
2024-04-10T02:08:24.036Z,100979.09
2024-04-10T02:12:25.650Z,100995.81
2024-04-10T02:16:27.680Z,100989.81
2024-04-10T02:20:29.359Z,101004.22
2024-04-10T02:24:31.990Z,100992.09
2024-04-10T02:28:33.578Z,101019.16
2024-04-10T02:32:35.421Z,101015.88
2024-04-10T02:36:37.108Z,101027.09
2024-04-10T02:40:38.704Z,101018.50
2024-04-10T02:44:40.307Z,101019.22
2024-04-10T02:48:41.929Z,101032.91
2024-04-10T02:52:43.470Z,101038.06
2024-04-10T02:56:45.089Z,101040.78
2024-04-10T03:00:48.338Z,101049.75
2024-04-10T03:04:50.427Z,101060.53
2024-04-10T03:08:52.127Z,101065.94
2024-04-10T03:12:53.739Z,101082.47
2024-04-10T03:16:55.770Z,101090.44
2024-04-10T03:20:57.822Z,101097.50
2024-04-10T03:24:59.417Z,101059.16
2024-04-10T03:29:01.392Z,101108.41
2024-04-10T03:33:03.259Z,101112.56
2024-04-10T03:37:06.072Z,101118.25
2024-04-10T03:41:07.746Z,101127.97
2024-04-10T03:45:10.204Z,101141.16
2024-04-10T03:49:11.944Z,101154.25
2024-04-10T03:53:13.790Z,101160.38
2024-04-10T03:57:15.421Z,101174.53
2024-04-10T04:01:17.074Z,101175.69
2024-04-10T04:05:18.709Z,101203.03
2024-04-10T04:09:20.493Z,101210.28
2024-04-10T04:13:22.725Z,101223.41
2024-04-10T04:17:25.170Z,101094.28
2024-04-10T04:21:27.064Z,101204.41
2024-04-10T04:25:32.334Z,101229.69
2024-04-10T04:29:35.298Z,101211.75
2024-04-10T04:33:37.239Z,101238.75
2024-04-10T04:37:39.050Z,101250.94
2024-04-10T04:41:40.778Z,101262.53
2024-04-10T04:45:42.498Z,101272.41
2024-04-10T04:49:44.288Z,101263.91
2024-04-10T04:53:45.982Z,101296.94
2024-04-10T04:57:47.679Z,101310.13
2024-04-10T05:01:49.330Z,101309.28
2024-04-10T05:05:51.185Z,101320.59
2024-04-10T05:09:53.401Z,101329.53
2024-04-10T05:13:55.164Z,101330.78
2024-04-10T05:17:56.966Z,101321.44
2024-04-10T05:21:59.043Z,101361.50
2024-04-10T05:26:04.586Z,101358.34
2024-04-10T05:30:08.762Z,101365.09
2024-04-10T05:34:10.515Z,101374.13
2024-04-10T05:38:12.149Z,101382.03
2024-04-10T05:42:13.761Z,101384.78
2024-04-10T05:46:15.349Z,101394.53
2024-04-10T05:50:17.476Z,101372.41
2024-04-10T05:54:19.818Z,101407.00
2024-04-10T05:58:21.452Z,101418.41
2024-04-10T06:02:23.732Z,101422.09
2024-04-10T06:06:25.403Z,101423.84
2024-04-10T06:10:27.721Z,101435.19
2024-04-10T06:14:29.509Z,101428.34
2024-04-10T06:18:31.729Z,101439.66
2024-04-10T06:22:33.329Z,101440.75
2024-04-10T06:26:35.170Z,101441.78
2024-04-10T06:30:36.774Z,101379.59
2024-04-10T06:34:38.437Z,101452.25
2024-04-10T06:38:42.434Z,101464.47
2024-04-10T06:42:44.056Z,101466.44
2024-04-10T06:46:45.639Z,101473.47
2024-04-10T06:50:47.270Z,101483.97
2024-04-10T06:54:49.051Z,101487.41
2024-04-10T06:58:50.738Z,101497.00
2024-04-10T07:02:52.516Z,101483.81
2024-04-10T07:06:54.183Z,101511.13
2024-04-10T07:10:55.919Z,101517.19
2024-04-10T07:14:57.721Z,101475.84
2024-04-10T07:19:00.117Z,101527.00
2024-04-10T07:23:01.948Z,101529.50
2024-04-10T07:27:04.036Z,101525.13
2024-04-10T07:31:05.768Z,101527.16
2024-04-10T07:35:08.015Z,101540.41
2024-04-10T07:39:09.830Z,101516.34
2024-04-10T07:43:11.433Z,101550.97
2024-04-10T07:47:13.211Z,101550.34
2024-04-10T07:51:15.910Z,101559.00
2024-04-10T07:55:17.891Z,101572.03
2024-04-10T07:59:19.573Z,101580.75
2024-04-10T08:03:21.540Z,101585.38
2024-04-10T08:07:24.330Z,101613.47
2024-04-10T08:11:28.545Z,101619.59
2024-04-10T08:15:30.285Z,101618.78
2024-04-10T08:19:32.118Z,101598.13
2024-04-10T08:23:35.815Z,101620.78
2024-04-10T08:27:37.770Z,101621.09
2024-04-10T08:31:39.342Z,101636.47
2024-04-10T08:35:43.456Z,101624.16
2024-04-10T08:39:49.331Z,101638.19
2024-04-10T08:43:52.850Z,101650.41
2024-04-10T08:47:55.329Z,101661.00
2024-04-10T08:51:57.985Z,101675.22
2024-04-10T08:56:08.274Z,101661.66
2024-04-10T09:00:12.300Z,101702.78
2024-04-10T09:04:14.818Z,101695.00
2024-04-10T09:08:16.548Z,101696.78
2024-04-10T09:12:25.233Z,101717.56
2024-04-10T09:16:27.071Z,101716.72
2024-04-10T09:20:28.693Z,101722.81
2024-04-10T09:24:31.615Z,101727.09
2024-04-10T09:28:36.022Z,101730.78
2024-04-10T09:32:37.944Z,101737.94
2024-04-10T09:36:40.172Z,101737.81
2024-04-10T09:40:46.881Z,101741.13
2024-04-10T09:44:56.286Z,101743.84
2024-04-10T09:49:02.072Z,101748.16
2024-04-10T09:53:06.690Z,101680.53
2024-04-10T09:57:11.550Z,101744.56
2024-04-10T10:01:13.228Z,101729.59
2024-04-10T10:05:22.481Z,101727.91
2024-04-10T10:09:25.707Z,101727.22
2024-04-10T10:13:31.208Z,101712.50
2024-04-10T10:17:41.757Z,101748.09
2024-04-10T10:22:00.491Z,101713.34
2024-04-10T10:26:02.865Z,101759.34
2024-04-10T10:30:06.270Z,101763.66
2024-04-10T10:34:14.154Z,101719.66
2024-04-10T10:38:16.764Z,101768.16
2024-04-10T10:42:18.777Z,101782.03
2024-04-10T10:46:20.486Z,101774.97
2024-04-10T10:50:22.154Z,101776.75
2024-04-10T10:54:24.096Z,101782.81
2024-04-10T10:58:28.528Z,101755.06
2024-04-10T11:02:30.176Z,101783.56
2024-04-10T11:06:31.949Z,101772.25
2024-04-10T11:10:33.996Z,101790.53
2024-04-10T11:14:35.980Z,101782.66
2024-04-10T11:18:37.664Z,101743.56
2024-04-10T11:22:39.415Z,101785.25
2024-04-10T11:26:41.084Z,101777.25
2024-04-10T11:30:42.840Z,101794.75
2024-04-10T11:34:44.493Z,101796.53
2024-04-10T11:38:49.683Z,101791.31
2024-04-10T11:42:51.930Z,101795.81
2024-04-10T11:46:53.633Z,101814.88
2024-04-10T11:50:55.928Z,101824.38
2024-04-10T11:54:58.940Z,101775.03
2024-04-10T11:59:00.524Z,101819.09
2024-04-10T12:03:03.906Z,101824.34
2024-04-10T12:07:05.655Z,101794.84
2024-04-10T12:11:08.073Z,101828.03
2024-04-10T12:15:09.851Z,101849.91
2024-04-10T12:19:11.574Z,101843.66
2024-04-10T12:23:13.256Z,101847.19
2024-04-10T12:27:14.844Z,101855.13
2024-04-10T12:31:16.489Z,101851.47
2024-04-10T12:35:37.225Z,101847.13
2024-04-10T12:39:38.904Z,101843.53
2024-04-10T12:43:44.014Z,101828.94
2024-04-10T12:47:45.836Z,101846.09
2024-04-10T12:51:47.712Z,101851.31
2024-04-10T12:55:55.755Z,101851.31
2024-04-10T12:59:57.487Z,101839.84
2024-04-10T13:03:59.469Z,101854.75
2024-04-10T13:08:01.263Z,101854.66
2024-04-10T13:12:04.438Z,101859.00
2024-04-10T13:16:08.555Z,101859.84
2024-04-10T13:20:10.478Z,101847.66
2024-04-10T13:24:12.274Z,101865.88
2024-04-10T13:28:14.503Z,101865.81
2024-04-10T13:32:16.352Z,101847.72
2024-04-10T13:36:20.078Z,101870.03
2024-04-10T13:40:22.509Z,101859.75
2024-04-10T13:44:24.161Z,101882.25
2024-04-10T13:48:26.045Z,101881.28
2024-04-10T13:52:28.547Z,101868.13
2024-04-10T13:56:30.296Z,101880.19
2024-04-10T14:00:32.202Z,101879.34
2024-04-10T14:04:33.937Z,101889.84
2024-04-10T14:08:36.213Z,101889.78
2024-04-10T14:12:39.183Z,101880.06
2024-04-10T14:16:42.737Z,101886.97
2024-04-10T14:20:44.454Z,101871.34
2024-04-10T14:24:46.366Z,101883.66
2024-04-10T14:28:48.191Z,101887.16
2024-04-10T14:32:50.066Z,101898.28
2024-04-10T14:36:52.058Z,101913.13
2024-04-10T14:40:54.887Z,101900.91
2024-04-10T14:44:56.776Z,101909.78
2024-04-10T14:48:58.453Z,101915.81
2024-04-10T14:53:00.757Z,101926.28
2024-04-10T14:57:02.606Z,101926.31
2024-04-10T15:01:21.134Z,101935.88
2024-04-10T15:05:23.120Z,101933.22
2024-04-10T15:09:24.950Z,101901.22
2024-04-10T15:13:29.313Z,101917.50
2024-04-10T15:17:31.085Z,101932.31
2024-04-10T15:21:32.925Z,101933.13
2024-04-10T15:25:34.504Z,101930.53
2024-04-10T15:29:36.445Z,101933.97
2024-04-10T15:33:40.434Z,101937.41
2024-04-10T15:37:42.246Z,101947.22
2024-04-10T15:41:44.551Z,101934.03
2024-04-10T15:45:46.312Z,101913.25
2024-04-10T15:49:47.986Z,101944.53
2024-04-10T15:53:49.778Z,101952.28
2024-04-10T15:57:51.416Z,101945.25
2024-04-10T16:01:53.073Z,101958.38
2024-04-10T16:05:55.010Z,101948.69
2024-04-10T16:09:57.374Z,101959.22
2024-04-10T16:13:59.078Z,101966.19
2024-04-10T16:18:00.874Z,101972.34
2024-04-10T16:22:02.646Z,101957.38
2024-04-10T16:26:30.399Z,101956.47
2024-04-10T16:30:37.339Z,101963.47
2024-04-10T16:34:39.314Z,101969.59
2024-04-10T16:38:42.556Z,101959.94
2024-04-10T16:42:44.498Z,101962.72
2024-04-10T16:46:46.161Z,101982.78
2024-04-10T16:50:58.408Z,101975.81
2024-04-10T16:55:00.866Z,101984.59
2024-04-10T16:59:03.362Z,101981.97
2024-04-10T17:03:08.976Z,101987.06
2024-04-10T17:07:11.813Z,101972.34
2024-04-10T17:11:17.951Z,101988.97
2024-04-10T17:15:19.770Z,101978.47
2024-04-10T17:19:39.830Z,101999.34
2024-04-10T17:23:41.562Z,102000.25
2024-04-10T17:27:46.643Z,101998.38
2024-04-10T17:31:48.441Z,102004.50
2024-04-10T17:35:59.751Z,102017.75
2024-04-10T17:40:01.620Z,102012.34
2024-04-10T17:44:03.323Z,102013.38
2024-04-10T17:48:05.394Z,102017.66
2024-04-10T17:52:07.037Z,102012.56
2024-04-10T17:56:08.941Z,102019.56
2024-04-10T18:00:11.362Z,102022.19
2024-04-10T18:04:13.284Z,102019.50
2024-04-10T18:08:15.291Z,101982.28
2024-04-10T18:12:17.865Z,102013.41
2024-04-10T18:16:19.628Z,102025.69
2024-04-10T18:20:21.510Z,102032.66
2024-04-10T18:24:23.522Z,102037.94
2024-04-10T18:28:25.282Z,102035.16
2024-04-10T18:32:27.832Z,102042.19
2024-04-10T18:36:29.495Z,102050.28
2024-04-10T18:40:31.125Z,102024.19
2024-04-10T18:44:33.413Z,102052.88
2024-04-10T18:48:36.996Z,102035.53
2024-04-10T18:52:38.711Z,102057.28
2024-04-10T18:56:40.357Z,102064.38
2024-04-10T19:00:42.014Z,102047.28
2024-04-10T19:04:43.756Z,102071.59
2024-04-10T19:08:45.579Z,102082.69
2024-04-10T19:12:48.890Z,102085.34
2024-04-10T19:16:52.103Z,102099.50
2024-04-10T19:20:53.792Z,102096.97
2024-04-10T19:24:57.163Z,102094.38
2024-04-10T19:28:58.754Z,102096.16
2024-04-10T19:33:00.551Z,102097.97
2024-04-10T19:37:02.314Z,102113.00
2024-04-10T19:41:06.899Z,102113.81
2024-04-10T19:45:10.012Z,102105.69
2024-04-10T19:49:13.247Z,102090.09
2024-04-10T19:53:16.810Z,102060.69
2024-04-10T19:57:18.482Z,102097.97
2024-04-10T20:01:20.204Z,102095.28
2024-04-10T20:05:21.878Z,102107.59
2024-04-10T20:09:23.482Z,102090.34
2024-04-10T20:13:26.093Z,102112.03
2024-04-10T20:17:27.793Z,102120.19
2024-04-10T20:21:29.423Z,102110.66
2024-04-10T20:25:31.500Z,102111.63
2024-04-10T20:29:33.154Z,102103.69
2024-04-10T20:33:37.057Z,102112.53
2024-04-10T20:37:38.894Z,102117.00
2024-04-10T20:41:41.262Z,102105.88
2024-04-10T20:46:02.231Z,102122.47
2024-04-10T20:50:04.573Z,102123.38
2024-04-10T20:54:07.772Z,102126.97
2024-04-10T20:58:09.506Z,102117.34
2024-04-10T21:02:12.964Z,102112.28
2024-04-10T21:06:16.882Z,102122.81
2024-04-10T21:10:37.372Z,102126.38
2024-04-10T21:14:57.383Z,102125.50
2024-04-10T21:19:17.594Z,102105.50
2024-04-10T21:23:37.877Z,102109.13
2024-04-10T21:27:58.513Z,102118.72
2024-04-10T21:32:18.707Z,102133.72
2024-04-10T21:36:39.073Z,102131.13
2024-04-10T21:40:59.396Z,102133.78
2024-04-10T21:45:19.938Z,102136.50
2024-04-10T21:51:17.226Z,102072.44
2024-04-10T21:55:37.362Z,102137.56
2024-04-10T22:00:08.171Z,102135.81
2024-04-10T22:04:37.562Z,102139.44
2024-04-10T22:08:57.675Z,102138.59
2024-04-10T22:12:59.426Z,102141.41
2024-04-10T22:17:20.000Z,102122.16
2024-04-10T22:21:40.315Z,102141.41
2024-04-10T22:25:52.035Z,102130.06
2024-04-10T22:29:54.020Z,102133.78
2024-04-10T22:33:56.992Z,102128.44
2024-04-10T22:37:58.743Z,102125.00
2024-04-10T22:42:00.946Z,102105.94
2024-04-10T22:46:02.638Z,102125.16
2024-04-10T22:50:05.005Z,102125.25
2024-04-10T22:54:06.876Z,102115.81
2024-04-10T22:58:08.619Z,102122.72
2024-04-10T23:02:10.324Z,102103.75
2024-04-10T23:06:11.943Z,102137.75
2024-04-10T23:10:13.734Z,102133.50
2024-04-10T23:14:15.297Z,102140.56
2024-04-10T23:18:25.253Z,102130.06
2024-04-10T23:22:37.526Z,102123.16
2024-04-10T23:26:39.569Z,102133.66
2024-04-10T23:30:41.152Z,102115.31
2024-04-10T23:34:42.988Z,102107.59
2024-04-10T23:38:44.840Z,102130.31
2024-04-10T23:42:46.648Z,102108.56
2024-04-10T23:46:48.273Z,102127.81
2024-04-10T23:50:50.128Z,102135.72
2024-04-10T23:54:51.813Z,102133.16
2024-04-10T23:58:53.387Z,102117.47
